createdAt,value
2022-08-07T00:01:12.614Z,23.22
2022-08-07T00:03:55.129Z,23.17
2022-08-07T00:06:29.489Z,23.14
2022-08-07T00:09:16.949Z,23.07
2022-08-07T00:11:55.910Z,22.98
2022-08-07T00:14:30.590Z,22.94
2022-08-07T00:16:59.057Z,22.89
2022-08-07T00:19:33.985Z,22.83
2022-08-07T00:22:24.491Z,22.82
2022-08-07T00:25:04.899Z,22.82
2022-08-07T00:27:51.837Z,22.79
2022-08-07T00:30:26.556Z,22.71
2022-08-07T00:32:56.658Z,22.67
2022-08-07T00:35:27.319Z,22.66
2022-08-07T00:37:57.825Z,22.65
2022-08-07T00:40:36.978Z,22.62
2022-08-07T00:43:10.421Z,22.64
2022-08-07T00:45:38.603Z,22.59
2022-08-07T00:48:09.681Z,22.52
2022-08-07T00:50:46.221Z,22.49
2022-08-07T00:53:19.555Z,22.52
2022-08-07T00:56:02.551Z,22.53
2022-08-07T00:58:31.516Z,22.51
2022-08-07T01:00:59.135Z,22.51
2022-08-07T01:03:54.847Z,22.48
2022-08-07T01:06:15.933Z,22.45
2022-08-07T01:08:53.626Z,22.43
2022-08-07T01:12:10.212Z,22.40
2022-08-07T01:14:10.122Z,22.39
2022-08-07T01:16:38.092Z,22.40
2022-08-07T01:19:18.375Z,22.37
2022-08-07T01:21:49.859Z,22.34
2022-08-07T01:24:23.352Z,22.32
2022-08-07T01:26:53.716Z,22.28
2022-08-07T01:29:27.654Z,22.28
2022-08-07T01:31:59.840Z,22.26
2022-08-07T01:34:31.471Z,22.23
2022-08-07T01:37:03.379Z,22.19
2022-08-07T01:39:40.482Z,22.14
2022-08-07T01:42:37.696Z,22.07
2022-08-07T01:45:18.076Z,22.06
2022-08-07T01:48:18.623Z,22.06
2022-08-07T01:50:42.961Z,22.08
2022-08-07T01:53:20.786Z,22.06
2022-08-07T01:55:51.589Z,22.05
2022-08-07T01:58:28.856Z,21.99
2022-08-07T02:01:25.058Z,21.91
2022-08-07T02:03:56.456Z,21.85
2022-08-07T02:06:31.679Z,21.81
2022-08-07T02:09:09.322Z,21.80
2022-08-07T02:12:03.360Z,21.74
2022-08-07T02:14:40.155Z,21.70
2022-08-07T02:17:16.669Z,21.69
2022-08-07T02:20:04.526Z,21.66
2022-08-07T02:22:38.375Z,21.64
2022-08-07T02:25:13.822Z,21.65
2022-08-07T02:27:51.220Z,21.62
2022-08-07T02:30:21.295Z,21.64
2022-08-07T02:33:07.215Z,21.62
2022-08-07T02:36:30.420Z,21.61
2022-08-07T02:38:38.334Z,21.56
2022-08-07T02:41:08.113Z,21.52
2022-08-07T02:43:41.090Z,21.48
2022-08-07T02:46:12.012Z,21.46
2022-08-07T02:48:47.188Z,21.47
2022-08-07T02:51:42.107Z,21.45
2022-08-07T02:54:13.163Z,21.42
2022-08-07T02:56:46.607Z,21.42
2022-08-07T02:59:19.795Z,21.41
2022-08-07T03:01:55.506Z,21.40
2022-08-07T03:04:25.645Z,21.39
2022-08-07T03:06:54.372Z,21.36
2022-08-07T03:09:43.773Z,21.37
2022-08-07T03:12:21.687Z,21.36
2022-08-07T03:14:52.750Z,21.35
2022-08-07T03:17:25.270Z,21.36
2022-08-07T03:19:55.538Z,21.37
2022-08-07T03:22:30.186Z,21.35
2022-08-07T03:24:59.965Z,21.29
2022-08-07T03:27:59.167Z,21.28
2022-08-07T03:30:20.578Z,21.29
2022-08-07T03:32:58.872Z,21.30
2022-08-07T03:35:44.099Z,21.32
2022-08-07T03:38:29.375Z,21.32
2022-08-07T03:41:03.385Z,21.35
2022-08-07T03:43:35.974Z,21.39
2022-08-07T03:46:18.159Z,21.45
2022-08-07T03:49:02.703Z,21.52
2022-08-07T03:51:47.107Z,21.54
2022-08-07T03:54:36.324Z,21.60
2022-08-07T03:57:07.628Z,21.70
2022-08-07T03:59:46.781Z,21.71
2022-08-07T04:02:28.798Z,21.72
2022-08-07T04:04:56.994Z,21.79
2022-08-07T04:07:25.395Z,21.93
2022-08-07T04:10:04.785Z,22.01
2022-08-07T04:12:35.140Z,22.08
2022-08-07T04:15:05.966Z,22.18
2022-08-07T04:18:57.256Z,22.28
2022-08-07T04:20:26.729Z,22.31
2022-08-07T04:23:01.636Z,22.42
2022-08-07T04:25:35.930Z,22.52
2022-08-07T04:28:08.672Z,22.58
2022-08-07T04:30:43.970Z,22.63
2022-08-07T04:33:27.988Z,22.64
2022-08-07T04:35:56.541Z,22.67
2022-08-07T04:38:28.673Z,22.76
2022-08-07T04:40:57.421Z,22.84
2022-08-07T04:44:12.844Z,22.90
2022-08-07T04:46:34.731Z,22.95
2022-08-07T04:49:17.875Z,23.05
2022-08-07T04:52:00.493Z,23.05
2022-08-07T04:54:34.088Z,23.06
2022-08-07T04:58:15.667Z,23.10
2022-08-07T05:00:09.665Z,23.22
2022-08-07T05:02:53.130Z,23.35
2022-08-07T05:05:53.333Z,23.57
2022-08-07T05:08:59.607Z,23.75
2022-08-07T05:11:19.337Z,23.96
2022-08-07T05:14:54.548Z,24.08
2022-08-07T05:16:52.999Z,24.13
2022-08-07T05:19:32.604Z,24.33
2022-08-07T05:22:13.033Z,24.64
2022-08-07T05:24:57.252Z,24.92
2022-08-07T05:28:03.202Z,25.13
2022-08-07T05:30:30.087Z,25.39
2022-08-07T05:33:02.499Z,25.64
2022-08-07T05:35:42.173Z,25.74
2022-08-07T05:38:13.120Z,25.91
2022-08-07T05:41:01.926Z,26.09
2022-08-07T05:43:50.014Z,26.26
2022-08-07T05:46:29.527Z,26.49
2022-08-07T05:48:59.410Z,26.70
2022-08-07T05:51:31.767Z,26.89
2022-08-07T05:54:12.183Z,27.17
2022-08-07T05:56:51.398Z,27.48
2022-08-07T05:59:21.235Z,27.76
2022-08-07T06:01:54.643Z,28.01
2022-08-07T06:04:26.275Z,28.19
2022-08-07T06:07:04.428Z,28.39
2022-08-07T06:10:03.721Z,28.74
2022-08-07T06:12:31.848Z,29.00
2022-08-07T06:15:05.506Z,29.21
2022-08-07T06:17:37.860Z,29.23
2022-08-07T06:20:12.692Z,29.14
2022-08-07T06:23:02.058Z,29.14
2022-08-07T06:25:54.504Z,29.23
2022-08-07T06:28:27.476Z,29.41
2022-08-07T06:30:58.109Z,29.64
2022-08-07T06:33:27.462Z,29.88
2022-08-07T06:36:12.246Z,30.12
2022-08-07T06:38:59.352Z,30.36
2022-08-07T06:42:01.094Z,30.64
2022-08-07T06:45:01.083Z,31.00
2022-08-07T06:47:28.727Z,31.16
2022-08-07T06:50:18.986Z,31.38
2022-08-07T06:52:53.227Z,31.63
2022-08-07T06:55:53.628Z,31.90
2022-08-07T06:58:21.519Z,32.07
2022-08-07T07:00:58.084Z,32.32
2022-08-07T07:03:47.523Z,32.51
2022-08-07T07:06:14.006Z,32.72
2022-08-07T07:08:51.318Z,32.88
2022-08-07T07:12:08.553Z,33.08
2022-08-07T07:14:08.573Z,33.23
2022-08-07T07:16:49.470Z,33.30
2022-08-07T07:19:56.403Z,33.44
2022-08-07T07:22:34.174Z,33.59
2022-08-07T07:25:14.231Z,33.68
2022-08-07T07:27:56.346Z,33.92
2022-08-07T07:30:39.756Z,34.12
2022-08-07T07:33:11.880Z,34.20
2022-08-07T07:35:44.112Z,34.40
2022-08-07T07:38:31.882Z,34.47
2022-08-07T07:41:03.715Z,34.49
2022-08-07T07:43:48.037Z,34.57
2022-08-07T07:46:36.532Z,34.79
2022-08-07T07:50:36.410Z,34.98
2022-08-07T07:52:03.867Z,35.00
2022-08-07T07:54:33.982Z,35.13
2022-08-07T07:57:05.421Z,35.14
2022-08-07T07:59:52.732Z,35.14
2022-08-07T08:02:22.667Z,35.19
2022-08-07T08:05:04.777Z,35.36
2022-08-07T08:07:35.939Z,35.44
2022-08-07T08:10:14.817Z,35.42
2022-08-07T08:13:00.573Z,35.56
2022-08-07T08:15:58.117Z,35.53
2022-08-07T08:18:24.937Z,35.24
2022-08-07T08:20:54.069Z,35.09
2022-08-07T08:23:41.839Z,35.08
2022-08-07T08:26:37.042Z,35.10
2022-08-07T08:29:05.438Z,35.00
2022-08-07T08:31:58.998Z,34.70
2022-08-07T08:34:35.715Z,34.75
2022-08-07T08:37:09.993Z,34.98
2022-08-07T08:39:58.709Z,34.57
2022-08-07T08:42:31.927Z,34.25
2022-08-07T08:45:13.206Z,34.57
2022-08-07T08:47:55.399Z,34.45
2022-08-07T08:50:34.873Z,34.21
2022-08-07T08:53:19.736Z,34.30
2022-08-07T08:55:54.830Z,34.22
2022-08-07T08:58:36.202Z,34.60
2022-08-07T09:01:14.633Z,34.96
2022-08-07T09:03:55.206Z,34.95
2022-08-07T09:06:37.471Z,35.25
2022-08-07T09:09:29.776Z,35.61
2022-08-07T09:12:30.390Z,35.92
2022-08-07T09:16:21.904Z,35.77
2022-08-07T09:18:11.525Z,35.35
2022-08-07T09:20:58.080Z,35.34
2022-08-07T09:24:53.999Z,35.74
2022-08-07T09:26:31.525Z,35.82
2022-08-07T09:30:01.099Z,35.48
2022-08-07T09:31:59.423Z,35.06
2022-08-07T09:34:32.109Z,35.20
2022-08-07T09:37:06.299Z,35.63
2022-08-07T09:39:54.696Z,36.07
2022-08-07T09:42:46.750Z,36.38
2022-08-07T09:47:26.353Z,36.65
2022-08-07T09:48:29.817Z,36.86
2022-08-07T09:52:09.952Z,36.79
2022-08-07T09:54:06.025Z,36.45
2022-08-07T09:57:06.294Z,36.79
2022-08-07T10:00:01.473Z,36.85
2022-08-07T10:04:06.580Z,37.25
2022-08-07T10:06:31.615Z,37.51
2022-08-07T10:09:23.777Z,37.69
2022-08-07T10:12:21.740Z,37.97
2022-08-07T10:15:44.113Z,37.97
2022-08-07T10:18:35.387Z,37.11
2022-08-07T10:21:51.142Z,36.47
2022-08-07T10:24:45.778Z,35.80
2022-08-07T10:27:30.152Z,35.37
2022-08-07T10:30:16.914Z,34.93
2022-08-07T10:33:00.263Z,34.65
2022-08-07T10:35:55.636Z,34.55
2022-08-07T10:38:49.966Z,34.71
2022-08-07T10:41:52.146Z,35.35
2022-08-07T10:44:37.579Z,36.00
2022-08-07T10:47:18.870Z,36.26
2022-08-07T10:50:02.561Z,36.49
2022-08-07T10:52:40.125Z,36.46
2022-08-07T10:55:21.203Z,36.62
2022-08-07T10:58:15.752Z,36.89
2022-08-07T11:00:56.099Z,37.06
2022-08-07T11:03:37.893Z,36.95
2022-08-07T11:06:22.014Z,36.69
2022-08-07T11:08:58.671Z,36.88
2022-08-07T11:11:36.020Z,36.69
2022-08-07T11:14:44.523Z,36.82
2022-08-07T11:17:08.977Z,37.02
2022-08-07T11:19:45.582Z,37.05
2022-08-07T11:22:32.258Z,37.19
2022-08-07T11:25:13.273Z,37.37
2022-08-07T11:28:01.376Z,37.62
2022-08-07T11:30:42.781Z,37.36
2022-08-07T11:33:59.450Z,36.87
2022-08-07T11:36:20.475Z,36.37
2022-08-07T11:39:02.540Z,36.67
2022-08-07T11:42:01.632Z,36.71
2022-08-07T11:44:40.147Z,36.27
2022-08-07T11:47:38.651Z,35.99
2022-08-07T11:50:44.493Z,36.39
2022-08-07T11:53:37.069Z,36.77
2022-08-07T11:56:26.733Z,36.91
2022-08-07T12:00:12.602Z,36.77
2022-08-07T12:02:17.676Z,36.48
2022-08-07T12:05:03.219Z,36.42
2022-08-07T12:07:41.150Z,36.69
2022-08-07T12:10:14.883Z,37.09
2022-08-07T12:12:47.863Z,37.47
2022-08-07T12:15:35.657Z,37.31
2022-08-07T12:18:16.043Z,36.87
2022-08-07T12:21:02.082Z,36.43
2022-08-07T12:24:05.311Z,36.13
2022-08-07T12:26:40.562Z,36.22
2022-08-07T12:29:37.199Z,36.77
2022-08-07T12:32:14.678Z,36.88
2022-08-07T12:34:49.204Z,36.35
2022-08-07T12:37:23.562Z,35.65
2022-08-07T12:39:58.719Z,35.15
2022-08-07T12:42:28.626Z,34.77
2022-08-07T12:45:06.478Z,34.49
2022-08-07T12:47:43.930Z,34.20
2022-08-07T12:50:38.697Z,33.99
2022-08-07T12:53:21.903Z,33.82
2022-08-07T12:56:03.533Z,33.71
2022-08-07T12:58:39.460Z,33.69
2022-08-07T13:01:19.633Z,33.63
2022-08-07T13:04:05.153Z,33.57
2022-08-07T13:07:03.043Z,33.83
2022-08-07T13:10:28.464Z,34.24
2022-08-07T13:13:10.925Z,34.80
2022-08-07T13:15:51.947Z,35.15
2022-08-07T13:18:30.096Z,35.50
2022-08-07T13:21:07.366Z,35.76
2022-08-07T13:24:03.739Z,35.89
2022-08-07T13:26:35.890Z,36.03
2022-08-07T13:29:11.058Z,36.12
2022-08-07T13:31:57.671Z,36.33
2022-08-07T13:34:38.186Z,36.48
2022-08-07T13:37:20.761Z,36.50
2022-08-07T13:40:34.885Z,36.61
2022-08-07T13:42:50.488Z,36.80
2022-08-07T13:46:10.833Z,36.96
2022-08-07T13:48:27.477Z,37.15
2022-08-07T13:51:01.976Z,36.99
2022-08-07T13:53:55.327Z,36.28
2022-08-07T13:56:36.238Z,35.22
2022-08-07T13:59:13.201Z,34.22
2022-08-07T14:01:51.186Z,33.44
2022-08-07T14:04:35.741Z,32.85
2022-08-07T14:07:09.482Z,31.91
2022-08-07T14:10:14.925Z,30.94
2022-08-07T14:12:36.299Z,30.33
2022-08-07T14:15:18.829Z,30.11
2022-08-07T14:18:24.513Z,30.01
2022-08-07T14:20:54.289Z,29.87
2022-08-07T14:24:00.170Z,29.81
2022-08-07T14:26:30.090Z,29.75
2022-08-07T14:29:10.369Z,29.69
2022-08-07T14:31:57.895Z,29.52
2022-08-07T14:34:30.366Z,29.23
2022-08-07T14:37:03.235Z,29.13
2022-08-07T14:40:18.278Z,28.98
2022-08-07T14:42:25.070Z,28.75
2022-08-07T14:44:59.821Z,28.39
2022-08-07T14:47:33.743Z,28.48
2022-08-07T14:50:05.396Z,28.68
2022-08-07T14:52:35.549Z,28.82
2022-08-07T14:55:03.860Z,28.92
2022-08-07T14:57:58.386Z,28.98
2022-08-07T15:00:30.484Z,28.93
2022-08-07T15:05:54.684Z,28.99
2022-08-07T15:08:50.417Z,28.97
2022-08-07T15:11:53.999Z,29.00
2022-08-07T15:14:17.044Z,29.10
2022-08-07T15:16:55.086Z,29.16
2022-08-07T15:20:30.321Z,29.27
2022-08-07T15:22:23.230Z,29.26
2022-08-07T15:28:30.673Z,29.45
2022-08-07T15:30:59.545Z,29.55
2022-08-07T15:37:02.430Z,29.58
2022-08-07T15:39:12.596Z,29.52
2022-08-07T15:48:01.133Z,29.35
2022-08-07T15:50:37.508Z,29.29
2022-08-07T15:53:24.341Z,29.18
2022-08-07T15:56:13.219Z,29.06
2022-08-07T15:58:52.386Z,28.99
2022-08-07T16:01:23.840Z,28.95
2022-08-07T16:04:14.913Z,28.86
2022-08-07T16:06:50.103Z,28.77
2022-08-07T16:09:23.222Z,28.74
2022-08-07T16:12:05.646Z,28.72
2022-08-07T16:15:06.877Z,28.67
2022-08-07T16:18:02.107Z,28.63
2022-08-07T16:22:02.144Z,28.60
2022-08-07T16:23:59.480Z,28.57
2022-08-07T16:26:58.901Z,28.55
2022-08-07T16:30:11.484Z,28.50
2022-08-07T16:32:35.949Z,28.48
2022-08-07T16:35:50.618Z,28.39
2022-08-07T16:38:18.521Z,28.34
2022-08-07T16:41:24.102Z,28.27
2022-08-07T16:44:08.618Z,28.23
2022-08-07T16:47:27.383Z,28.13
2022-08-07T16:50:35.962Z,28.05
2022-08-07T16:53:48.204Z,27.97
2022-08-07T16:56:17.819Z,27.88
2022-08-07T16:59:14.221Z,27.86
2022-08-07T17:01:55.670Z,27.82
2022-08-07T17:04:34.939Z,27.76
2022-08-07T17:07:18.655Z,27.68
2022-08-07T17:10:32.249Z,27.65
2022-08-07T17:13:24.745Z,27.57
2022-08-07T17:16:17.329Z,27.47
2022-08-07T17:18:55.194Z,27.39
2022-08-07T17:21:28.852Z,27.32
2022-08-07T17:24:31.745Z,27.21
2022-08-07T17:27:04.093Z,27.13
2022-08-07T17:30:15.858Z,27.06
2022-08-07T17:32:56.112Z,26.89
2022-08-07T17:35:50.090Z,26.77
2022-08-07T17:38:33.574Z,26.67
2022-08-07T17:42:00.849Z,26.61
2022-08-07T17:44:02.198Z,26.54
2022-08-07T17:46:38.003Z,26.47
2022-08-07T17:49:22.891Z,26.42
2022-08-07T17:52:00.472Z,26.32
2022-08-07T17:54:54.136Z,26.23
2022-08-07T17:57:56.149Z,26.18
2022-08-07T18:00:33.678Z,26.10
2022-08-07T18:03:18.726Z,26.02
2022-08-07T18:06:01.716Z,25.90
2022-08-07T18:08:34.230Z,25.86
2022-08-07T18:12:17.546Z,25.85
2022-08-07T18:14:04.833Z,25.84
2022-08-07T18:16:36.334Z,25.78
2022-08-07T18:21:11.698Z,25.69
2022-08-07T18:22:30.595Z,25.64
2022-08-07T18:25:19.457Z,25.59
2022-08-07T18:28:35.372Z,25.55
2022-08-07T18:31:07.638Z,25.44
2022-08-07T18:34:06.589Z,25.33
2022-08-07T18:37:09.319Z,25.26
2022-08-07T18:40:05.575Z,25.22
2022-08-07T18:42:47.058Z,25.16
2022-08-07T18:45:44.819Z,25.12
2022-08-07T18:50:04.674Z,25.06
2022-08-07T18:51:08.761Z,24.99
2022-08-07T18:53:55.759Z,24.94
2022-08-07T18:56:34.580Z,24.88
2022-08-07T18:59:47.960Z,24.85
2022-08-07T19:02:31.729Z,24.78
2022-08-07T19:05:09.991Z,24.72
2022-08-07T19:07:51.857Z,24.67
2022-08-07T19:10:31.877Z,24.60
2022-08-07T19:13:24.186Z,24.51
2022-08-07T19:16:04.527Z,24.46
2022-08-07T19:18:51.836Z,24.38
2022-08-07T19:21:51.320Z,24.33
2022-08-07T19:24:30.630Z,24.24
2022-08-07T19:28:28.405Z,24.17
2022-08-07T19:31:02.943Z,24.04
2022-08-07T19:32:46.366Z,23.92
2022-08-07T19:35:18.073Z,23.89
2022-08-07T19:37:56.759Z,23.88
2022-08-07T19:40:30.899Z,23.86
2022-08-07T19:43:02.384Z,23.82
2022-08-07T19:46:07.837Z,23.79
2022-08-07T19:48:25.819Z,23.75
2022-08-07T19:50:54.617Z,23.73
2022-08-07T19:54:33.107Z,23.67
2022-08-07T19:56:58.768Z,23.56
2022-08-07T19:59:07.010Z,23.47
2022-08-07T20:01:56.104Z,23.40
2022-08-07T20:04:30.893Z,23.31
2022-08-07T20:06:59.968Z,23.21
2022-08-07T20:10:33.948Z,23.14
2022-08-07T20:12:32.289Z,23.11
2022-08-07T20:15:04.728Z,23.08
2022-08-07T20:17:40.537Z,23.06
2022-08-07T20:20:12.039Z,23.03
2022-08-07T20:22:46.225Z,23.02
2022-08-07T20:25:19.796Z,22.99
2022-08-07T20:27:54.303Z,22.97
2022-08-07T20:30:30.863Z,22.95
2022-08-07T20:33:01.308Z,22.93
2022-08-07T20:35:51.749Z,22.88
2022-08-07T20:38:21.598Z,22.82
2022-08-07T20:40:52.935Z,22.77
2022-08-07T20:43:25.925Z,22.71
2022-08-07T20:46:26.612Z,22.63
2022-08-07T20:49:54.367Z,22.53
2022-08-07T20:51:40.291Z,22.45
2022-08-07T20:54:15.342Z,22.42
2022-08-07T20:56:59.776Z,22.36
2022-08-07T21:00:07.906Z,22.32
2022-08-07T21:02:41.151Z,22.28
2022-08-07T21:05:52.858Z,22.19
2022-08-07T21:08:16.593Z,22.15
2022-08-07T21:10:49.724Z,22.15
2022-08-07T21:13:19.316Z,22.14
2022-08-07T21:16:00.344Z,22.14
2022-08-07T21:18:35.410Z,22.13
2022-08-07T21:21:10.304Z,22.10
2022-08-07T21:23:50.480Z,22.09
2022-08-07T21:26:26.152Z,22.06
2022-08-07T21:29:00.570Z,22.06
2022-08-07T21:31:49.523Z,22.04
2022-08-07T21:34:32.573Z,22.01
2022-08-07T21:37:06.363Z,21.93
2022-08-07T21:39:51.809Z,21.86
2022-08-07T21:42:42.991Z,21.86
2022-08-07T21:46:08.986Z,21.84
2022-08-07T21:48:28.990Z,21.81
2022-08-07T21:51:19.561Z,21.77
2022-08-07T21:54:01.151Z,21.73
2022-08-07T21:56:47.059Z,21.68
2022-08-07T21:59:30.468Z,21.64
2022-08-07T22:02:11.109Z,21.56
2022-08-07T22:04:51.285Z,21.47
2022-08-07T22:07:31.611Z,21.40
2022-08-07T22:10:18.932Z,21.34
2022-08-07T22:12:52.797Z,21.28
2022-08-07T22:16:38.798Z,21.26
2022-08-07T22:18:21.866Z,21.23
2022-08-07T22:20:52.785Z,21.24
2022-08-07T22:23:24.454Z,21.28
2022-08-07T22:26:02.057Z,21.25
2022-08-07T22:28:39.777Z,21.11
2022-08-07T22:31:45.666Z,21.07
2022-08-07T22:34:12.834Z,21.10
2022-08-07T22:36:47.657Z,20.99
2022-08-07T22:39:30.329Z,20.81
2022-08-07T22:42:25.930Z,20.54
2022-08-07T22:45:11.057Z,20.43
2022-08-07T22:48:13.612Z,20.43
2022-08-07T22:51:23.776Z,20.43
2022-08-07T22:54:06.408Z,20.46
2022-08-07T22:56:47.754Z,20.40
2022-08-07T22:59:51.297Z,20.42
2022-08-07T23:02:31.126Z,20.42
2022-08-07T23:06:15.662Z,20.37
2022-08-07T23:08:34.301Z,20.33
2022-08-07T23:11:18.152Z,20.40
2022-08-07T23:14:15.520Z,20.23
2022-08-07T23:17:01.894Z,20.14
2022-08-07T23:19:59.986Z,20.11
2022-08-07T23:22:43.778Z,20.14
2022-08-07T23:25:28.702Z,20.18
2022-08-07T23:28:22.529Z,20.17
2022-08-07T23:31:11.961Z,20.15
2022-08-07T23:34:19.921Z,20.16
2022-08-07T23:37:20.472Z,20.16
2022-08-07T23:40:07.378Z,20.17
2022-08-07T23:42:48.514Z,20.17
2022-08-07T23:45:33.513Z,20.14
2022-08-07T23:48:44.626Z,20.13
2022-08-07T23:52:58.420Z,20.14
2022-08-07T23:54:36.167Z,20.14
2022-08-07T23:57:18.602Z,20.10
